Leon — D5BH4 — position and weather

sailwx.info

Track history (hours):
 
Tides and Currents Weather Stations Pressure Air Temp Water Temp Dewpoint Dewpoint Depression Visibility Wind Speed Wind Dir Waves Ship Positions

Leon

Last reported at 2014-Nov-15 00:27 UTC. Time now 2014-Nov-22 03:09 UTC.
Position N 55°28' E 014°57'.

Length 95 m; draft 5.8 m.

Type: Ship (hazmat cat C). MMSI: 636015519.

Date/timePositionNaut miles runAvg speedWind from/ knotsBaromVisibWave heightAir tempDewpointWater temp
2014-Nov-15 00:27N 55°28' E 014°57'19 9.1
2014-Nov-14 22:24N 55°17' E 014°30'8 9.7
2014-Nov-14 21:32N 55°10' E 014°20'50 7.1
2014-Nov-14 14:33N 55°14' E 012°53'15 7.5
2014-Nov-14 12:33N 55°27' E 012°40'9 8.9
2014-Nov-14 11:33N 55°36' E 012°42'8 7.9
2014-Nov-14 10:33N 55°44' E 012°41'8 8.5
2014-Nov-14 09:33N 55°52' E 012°39'9 8.7
2014-Nov-14 08:33N 56°01' E 012°38'7 6.6
2014-Nov-14 07:33N 56°06' E 012°32'8 7.6
2014-Nov-14 06:34N 56°11' E 012°21'8 7.7
2014-Nov-14 05:33N 56°15' E 012°10'5 0.1
2014-Nov-12 12:23N 56°12' E 012°02'1 1.3
2014-Nov-12 11:32N 56°12' E 012°04'0 0.0
2014-Nov-12 10:32N 56°12' E 012°04'0 0.0
2014-Nov-12 09:32N 56°12' E 012°04'0 0.0
2014-Nov-12 08:32N 56°12' E 012°04'0 0.0
2014-Nov-12 07:20N 56°12' E 012°04'0 0.0
2014-Nov-12 06:26N 56°12' E 012°04'0 0.0
2014-Nov-12 05:32N 56°12' E 012°04'0 0.0
2014-Nov-12 04:29N 56°12' E 012°04'0 0.0
2014-Nov-12 03:32N 56°12' E 012°04'0 0.0
2014-Nov-12 02:32N 56°12' E 012°04'0 0.0
2014-Nov-12 01:32N 56°12' E 012°04'0 0.0
2014-Nov-12 00:32N 56°12' E 012°04'0 0.0
2014-Nov-11 23:32N 56°12' E 012°04'0 0.0
2014-Nov-11 22:29N 56°12' E 012°04'0 0.0
2014-Nov-11 21:26N 56°12' E 012°04'0 0.0
2014-Nov-11 20:29N 56°12' E 012°04'0 0.0
2014-Nov-11 19:29N 56°12' E 012°04'0 0.0
2014-Nov-11 18:29N 56°12' E 012°04'0 0.0
2014-Nov-11 17:32N 56°12' E 012°04'0 0.0
2014-Nov-11 16:32N 56°12' E 012°04'0 0.0
2014-Nov-11 15:29N 56°12' E 012°04'0 0.0
2014-Nov-11 14:32N 56°12' E 012°04'0 0.0
2014-Nov-11 13:32N 56°12' E 012°04'0 0.0
2014-Nov-11 12:32N 56°12' E 012°04'0 0.0
2014-Nov-11 11:32N 56°12' E 012°04'0 0.0
2014-Nov-11 10:32N 56°12' E 012°04'0 0.0
2014-Nov-11 09:32N 56°12' E 012°04'0 0.0
2014-Nov-11 08:23N 56°12' E 012°04'0 0.0
2014-Nov-11 07:32N 56°12' E 012°04'0 0.0
2014-Nov-11 06:26N 56°12' E 012°04'0 0.0
2014-Nov-11 05:32N 56°12' E 012°04'0 0.0
2014-Nov-11 04:32N 56°12' E 012°04'0 0.0
2014-Nov-11 03:32N 56°12' E 012°04'0 0.0
2014-Nov-11 02:29N 56°12' E 012°04'0 0.0
2014-Nov-11 01:32N 56°12' E 012°05'0 0.0
2014-Nov-11 00:29N 56°12' E 012°05'0 0.0
2014-Nov-10 23:32N 56°12' E 012°05'0 0.0
2014-Nov-10 22:32N 56°12' E 012°05'0 0.0
2014-Nov-10 21:32N 56°12' E 012°05'0 0.0
2014-Nov-10 20:26N 56°12' E 012°05'0 0.0
2014-Nov-10 19:32N 56°12' E 012°05'0 0.0
2014-Nov-10 18:29N 56°12' E 012°05'0 0.0
2014-Nov-10 17:32N 56°12' E 012°05'0 0.0
2014-Nov-10 16:32N 56°12' E 012°05'0 0.0
2014-Nov-10 15:32N 56°12' E 012°05'0 0.0
2014-Nov-10 14:23N 56°12' E 012°05'0 0.0
2014-Nov-10 12:23N 56°12' E 012°05'0 0.0
2014-Nov-10 11:26N 56°12' E 012°05'0 0.0
2014-Nov-10 10:29N 56°12' E 012°05'0 0.0
2014-Nov-10 09:32N 56°12' E 012°05'0 0.0
2014-Nov-10 08:23N 56°12' E 012°05'0 0.0
2014-Nov-10 07:32N 56°12' E 012°05'0 0.1
2014-Nov-10 06:32N 56°12' E 012°04'0 0.0
2014-Nov-10 05:32N 56°12' E 012°05'0 0.0
2014-Nov-10 04:32N 56°12' E 012°04'0 0.0
2014-Nov-10 03:32N 56°12' E 012°05'0 0.0
2014-Nov-10 02:32N 56°12' E 012°05'0 0.0
2014-Nov-10 01:32N 56°12' E 012°05'0 0.1
2014-Nov-10 00:32N 56°12' E 012°05'0 0.0
2014-Nov-09 23:32N 56°12' E 012°05'0 0.1
2014-Nov-09 22:32N 56°12' E 012°04'0 0.1
2014-Nov-09 21:32N 56°12' E 012°04'0 0.0
2014-Nov-09 20:32N 56°12' E 012°04'0 0.0
2014-Nov-09 19:29N 56°12' E 012°04'0 0.0
2014-Nov-09 18:32N 56°12' E 012°04'0 0.0
2014-Nov-09 17:32N 56°12' E 012°04'0 0.0
2014-Nov-09 16:32N 56°12' E 012°04'0 0.1
2014-Nov-09 15:32N 56°12' E 012°04'0 0.0
2014-Nov-09 14:32N 56°12' E 012°05'0 0.0
2014-Nov-09 13:32N 56°12' E 012°05'0 0.0
2014-Nov-09 12:29N 56°12' E 012°05'0 0.0
2014-Nov-09 11:29N 56°12' E 012°05'0 0.0
2014-Nov-09 10:32N 56°12' E 012°04'0 0.0
2014-Nov-09 09:32N 56°12' E 012°04'0 0.0
2014-Nov-09 08:32N 56°12' E 012°04'0 0.1
2014-Nov-09 07:20N 56°12' E 012°05'0 0.0
2014-Nov-09 06:29N 56°12' E 012°05'0 0.0
2014-Nov-09 05:23N 56°12' E 012°05'0 0.0
2014-Nov-09 04:29N 56°12' E 012°05'0 0.1
2014-Nov-09 03:32N 56°12' E 012°05'0 0.0
2014-Nov-09 02:20N 56°12' E 012°05'0 0.0
2014-Nov-09 01:32N 56°12' E 012°05'0 0.0
2014-Nov-09 00:32N 56°12' E 012°05'0 0.0
2014-Nov-08 23:32N 56°12' E 012°05'0 0.0
2014-Nov-08 22:29N 56°12' E 012°05'0 0.0
2014-Nov-08 21:32N 56°12' E 012°05'0 0.0
2014-Nov-08 20:32N 56°12' E 012°05'0 0.0
2014-Nov-08 19:32N 56°12' E 012°05'0 0.0
2014-Nov-08 18:32N 56°12' E 012°05'0 0.0
2014-Nov-08 17:32N 56°12' E 012°05'0 0.0
2014-Nov-08 16:32N 56°12' E 012°05'0 0.0
2014-Nov-08 15:32N 56°12' E 012°05'0 0.0
2014-Nov-08 14:32N 56°12' E 012°05'0 0.0
2014-Nov-08 13:32N 56°12' E 012°05'0 0.0
2014-Nov-08 12:32N 56°12' E 012°05'0 0.0
2014-Nov-08 11:29N 56°12' E 012°05'0 0.0
2014-Nov-08 10:32N 56°12' E 012°05'0 0.0
2014-Nov-08 09:26N 56°12' E 012°05'0 0.0
2014-Nov-08 08:29N 56°12' E 012°05'0 0.0
2014-Nov-08 07:32N 56°12' E 012°04'0 0.0
2014-Nov-08 06:32N 56°12' E 012°04'0 0.0
2014-Nov-08 05:32N 56°12' E 012°05'0 0.0
2014-Nov-08 04:32N 56°12' E 012°05'0 0.0
2014-Nov-08 03:32N 56°12' E 012°05'0 0.0
2014-Nov-08 02:17N 56°12' E 012°05'0 0.0
2014-Nov-08 01:29N 56°12' E 012°04'0 0.0
2014-Nov-08 00:32N 56°12' E 012°04'0 0.0
2014-Nov-07 23:32N 56°12' E 012°04'0 0.0
2014-Nov-07 22:32N 56°12' E 012°04'0 0.0
2014-Nov-07 21:32N 56°12' E 012°04'0 0.0
2014-Nov-07 20:32N 56°12' E 012°04'0 0.0
2014-Nov-07 19:32N 56°12' E 012°04'0 0.0
2014-Nov-07 18:32N 56°12' E 012°04'0 0.0
2014-Nov-07 17:32N 56°12' E 012°04'0 0.0
2014-Nov-07 16:32N 56°12' E 012°04'0 0.0
2014-Nov-07 15:32N 56°12' E 012°04'0 0.0
2014-Nov-07 14:32N 56°12' E 012°04'0 0.0
2014-Nov-07 13:32N 56°12' E 012°04'0 0.0
2014-Nov-07 12:29N 56°12' E 012°05'0 0.0
2014-Nov-07 11:33N 56°12' E 012°05'0 0.0
2014-Nov-07 10:33N 56°12' E 012°05'0 0.0
2014-Nov-07 09:33N 56°12' E 012°05'0 0.0
2014-Nov-07 08:33N 56°12' E 012°04'0 0.0
2014-Nov-07 07:33N 56°12' E 012°04'3 3.0
2014-Nov-07 06:33N 56°15' E 012°03'5410.6
2014-Nov-07 01:27N 57°08' E 011°37'1010.7
2014-Nov-07 00:33N 57°17' E 011°31'1110.5
2014-Nov-06 23:33N 57°27' E 011°25'1010.1
2014-Nov-06 22:33N 57°34' E 011°12'1010.0
2014-Nov-06 21:33N 57°41' E 010°58'1010.0
2014-Nov-06 20:33N 57°47' E 010°44'8 8.5
2014-Nov-06 19:33N 57°47' E 010°28'9 9.2
2014-Nov-06 18:33N 57°44' E 010°12'282 7.8
2014-Nov-05 06:32N 54°05' E 004°57'1311.2
2014-Nov-05 05:25N 53°52' E 004°55'6112.4
2014-Nov-05 00:32N 52°56' E 004°19'  
Track history (hours):
 
Tides and Currents Weather Stations Pressure Air Temp Water Temp Dewpoint Dewpoint Depression Visibility Wind Speed Wind Dir Waves Ship Positions

Leon

Last reported at 2014-Nov-15 00:27 UTC. Time now 2014-Nov-22 03:09 UTC.
Position N 55°28' E 014°57'.

Length 95 m; draft 5.8 m.

Type: Ship (hazmat cat C). MMSI: 636015519.

Date/timePositionNaut miles runAvg speedWind from/ knotsBaromVisibWave heightAir tempDewpointWater temp
2014-Nov-15 00:27N 55°28' E 014°57'19 9.1
2014-Nov-14 22:24N 55°17' E 014°30'8 9.7
2014-Nov-14 21:32N 55°10' E 014°20'50 7.1
2014-Nov-14 14:33N 55°14' E 012°53'15 7.5
2014-Nov-14 12:33N 55°27' E 012°40'9 8.9
2014-Nov-14 11:33N 55°36' E 012°42'8 7.9
2014-Nov-14 10:33N 55°44' E 012°41'8 8.5
2014-Nov-14 09:33N 55°52' E 012°39'9 8.7
2014-Nov-14 08:33N 56°01' E 012°38'7 6.6
2014-Nov-14 07:33N 56°06' E 012°32'8 7.6
2014-Nov-14 06:34N 56°11' E 012°21'8 7.7
2014-Nov-14 05:33N 56°15' E 012°10'5 0.1
2014-Nov-12 12:23N 56°12' E 012°02'1 1.3
2014-Nov-12 11:32N 56°12' E 012°04'0 0.0
2014-Nov-12 10:32N 56°12' E 012°04'0 0.0
2014-Nov-12 09:32N 56°12' E 012°04'0 0.0
2014-Nov-12 08:32N 56°12' E 012°04'0 0.0
2014-Nov-12 07:20N 56°12' E 012°04'0 0.0
2014-Nov-12 06:26N 56°12' E 012°04'0 0.0
2014-Nov-12 05:32N 56°12' E 012°04'0 0.0
2014-Nov-12 04:29N 56°12' E 012°04'0 0.0
2014-Nov-12 03:32N 56°12' E 012°04'0 0.0
2014-Nov-12 02:32N 56°12' E 012°04'0 0.0
2014-Nov-12 01:32N 56°12' E 012°04'0 0.0
2014-Nov-12 00:32N 56°12' E 012°04'0 0.0
2014-Nov-11 23:32N 56°12' E 012°04'0 0.0
2014-Nov-11 22:29N 56°12' E 012°04'0 0.0
2014-Nov-11 21:26N 56°12' E 012°04'0 0.0
2014-Nov-11 20:29N 56°12' E 012°04'0 0.0
2014-Nov-11 19:29N 56°12' E 012°04'0 0.0
2014-Nov-11 18:29N 56°12' E 012°04'0 0.0
2014-Nov-11 17:32N 56°12' E 012°04'0 0.0
2014-Nov-11 16:32N 56°12' E 012°04'0 0.0
2014-Nov-11 15:29N 56°12' E 012°04'0 0.0
2014-Nov-11 14:32N 56°12' E 012°04'0 0.0
2014-Nov-11 13:32N 56°12' E 012°04'0 0.0
2014-Nov-11 12:32N 56°12' E 012°04'0 0.0
2014-Nov-11 11:32N 56°12' E 012°04'0 0.0
2014-Nov-11 10:32N 56°12' E 012°04'0 0.0
2014-Nov-11 09:32N 56°12' E 012°04'0 0.0
2014-Nov-11 08:23N 56°12' E 012°04'0 0.0
2014-Nov-11 07:32N 56°12' E 012°04'0 0.0
2014-Nov-11 06:26N 56°12' E 012°04'0 0.0
2014-Nov-11 05:32N 56°12' E 012°04'0 0.0
2014-Nov-11 04:32N 56°12' E 012°04'0 0.0
2014-Nov-11 03:32N 56°12' E 012°04'0 0.0
2014-Nov-11 02:29N 56°12' E 012°04'0 0.0
2014-Nov-11 01:32N 56°12' E 012°05'0 0.0
2014-Nov-11 00:29N 56°12' E 012°05'0 0.0
2014-Nov-10 23:32N 56°12' E 012°05'0 0.0
2014-Nov-10 22:32N 56°12' E 012°05'0 0.0
2014-Nov-10 21:32N 56°12' E 012°05'0 0.0
2014-Nov-10 20:26N 56°12' E 012°05'0 0.0
2014-Nov-10 19:32N 56°12' E 012°05'0 0.0
2014-Nov-10 18:29N 56°12' E 012°05'0 0.0
2014-Nov-10 17:32N 56°12' E 012°05'0 0.0
2014-Nov-10 16:32N 56°12' E 012°05'0 0.0
2014-Nov-10 15:32N 56°12' E 012°05'0 0.0
2014-Nov-10 14:23N 56°12' E 012°05'0 0.0
2014-Nov-10 12:23N 56°12' E 012°05'0 0.0
2014-Nov-10 11:26N 56°12' E 012°05'0 0.0
2014-Nov-10 10:29N 56°12' E 012°05'0 0.0
2014-Nov-10 09:32N 56°12' E 012°05'0 0.0
2014-Nov-10 08:23N 56°12' E 012°05'0 0.0
2014-Nov-10 07:32N 56°12' E 012°05'0 0.1
2014-Nov-10 06:32N 56°12' E 012°04'0 0.0
2014-Nov-10 05:32N 56°12' E 012°05'0 0.0
2014-Nov-10 04:32N 56°12' E 012°04'0 0.0
2014-Nov-10 03:32N 56°12' E 012°05'0 0.0
2014-Nov-10 02:32N 56°12' E 012°05'0 0.0
2014-Nov-10 01:32N 56°12' E 012°05'0 0.1
2014-Nov-10 00:32N 56°12' E 012°05'0 0.0
2014-Nov-09 23:32N 56°12' E 012°05'0 0.1
2014-Nov-09 22:32N 56°12' E 012°04'0 0.1
2014-Nov-09 21:32N 56°12' E 012°04'0 0.0
2014-Nov-09 20:32N 56°12' E 012°04'0 0.0
2014-Nov-09 19:29N 56°12' E 012°04'0 0.0
2014-Nov-09 18:32N 56°12' E 012°04'0 0.0
2014-Nov-09 17:32N 56°12' E 012°04'0 0.0
2014-Nov-09 16:32N 56°12' E 012°04'0 0.1
2014-Nov-09 15:32N 56°12' E 012°04'0 0.0
2014-Nov-09 14:32N 56°12' E 012°05'0 0.0
2014-Nov-09 13:32N 56°12' E 012°05'0 0.0
2014-Nov-09 12:29N 56°12' E 012°05'0 0.0
2014-Nov-09 11:29N 56°12' E 012°05'0 0.0
2014-Nov-09 10:32N 56°12' E 012°04'0 0.0
2014-Nov-09 09:32N 56°12' E 012°04'0 0.0
2014-Nov-09 08:32N 56°12' E 012°04'0 0.1
2014-Nov-09 07:20N 56°12' E 012°05'0 0.0
2014-Nov-09 06:29N 56°12' E 012°05'0 0.0
2014-Nov-09 05:23N 56°12' E 012°05'0 0.0
2014-Nov-09 04:29N 56°12' E 012°05'0 0.1
2014-Nov-09 03:32N 56°12' E 012°05'0 0.0
2014-Nov-09 02:20N 56°12' E 012°05'0 0.0
2014-Nov-09 01:32N 56°12' E 012°05'0 0.0
2014-Nov-09 00:32N 56°12' E 012°05'0 0.0
2014-Nov-08 23:32N 56°12' E 012°05'0 0.0
2014-Nov-08 22:29N 56°12' E 012°05'0 0.0
2014-Nov-08 21:32N 56°12' E 012°05'0 0.0
2014-Nov-08 20:32N 56°12' E 012°05'0 0.0
2014-Nov-08 19:32N 56°12' E 012°05'0 0.0
2014-Nov-08 18:32N 56°12' E 012°05'0 0.0
2014-Nov-08 17:32N 56°12' E 012°05'0 0.0
2014-Nov-08 16:32N 56°12' E 012°05'0 0.0
2014-Nov-08 15:32N 56°12' E 012°05'0 0.0
2014-Nov-08 14:32N 56°12' E 012°05'0 0.0
2014-Nov-08 13:32N 56°12' E 012°05'0 0.0
2014-Nov-08 12:32N 56°12' E 012°05'0 0.0
2014-Nov-08 11:29N 56°12' E 012°05'0 0.0
2014-Nov-08 10:32N 56°12' E 012°05'0 0.0
2014-Nov-08 09:26N 56°12' E 012°05'0 0.0
2014-Nov-08 08:29N 56°12' E 012°05'0 0.0
2014-Nov-08 07:32N 56°12' E 012°04'0 0.0
2014-Nov-08 06:32N 56°12' E 012°04'0 0.0
2014-Nov-08 05:32N 56°12' E 012°05'0 0.0
2014-Nov-08 04:32N 56°12' E 012°05'0 0.0
2014-Nov-08 03:32N 56°12' E 012°05'0 0.0
2014-Nov-08 02:17N 56°12' E 012°05'0 0.0
2014-Nov-08 01:29N 56°12' E 012°04'0 0.0
2014-Nov-08 00:32N 56°12' E 012°04'0 0.0
2014-Nov-07 23:32N 56°12' E 012°04'0 0.0
2014-Nov-07 22:32N 56°12' E 012°04'0 0.0
2014-Nov-07 21:32N 56°12' E 012°04'0 0.0
2014-Nov-07 20:32N 56°12' E 012°04'0 0.0
2014-Nov-07 19:32N 56°12' E 012°04'0 0.0
2014-Nov-07 18:32N 56°12' E 012°04'0 0.0
2014-Nov-07 17:32N 56°12' E 012°04'0 0.0
2014-Nov-07 16:32N 56°12' E 012°04'0 0.0
2014-Nov-07 15:32N 56°12' E 012°04'0 0.0
2014-Nov-07 14:32N 56°12' E 012°04'0 0.0
2014-Nov-07 13:32N 56°12' E 012°04'0 0.0
2014-Nov-07 12:29N 56°12' E 012°05'0 0.0
2014-Nov-07 11:33N 56°12' E 012°05'0 0.0
2014-Nov-07 10:33N 56°12' E 012°05'0 0.0
2014-Nov-07 09:33N 56°12' E 012°05'0 0.0
2014-Nov-07 08:33N 56°12' E 012°04'0 0.0
2014-Nov-07 07:33N 56°12' E 012°04'3 3.0
2014-Nov-07 06:33N 56°15' E 012°03'5410.6
2014-Nov-07 01:27N 57°08' E 011°37'1010.7
2014-Nov-07 00:33N 57°17' E 011°31'1110.5
2014-Nov-06 23:33N 57°27' E 011°25'1010.1
2014-Nov-06 22:33N 57°34' E 011°12'1010.0
2014-Nov-06 21:33N 57°41' E 010°58'1010.0
2014-Nov-06 20:33N 57°47' E 010°44'8 8.5
2014-Nov-06 19:33N 57°47' E 010°28'9 9.2
2014-Nov-06 18:33N 57°44' E 010°12'282 7.8
2014-Nov-05 06:32N 54°05' E 004°57'1311.2
2014-Nov-05 05:25N 53°52' E 004°55'6112.4
2014-Nov-05 00:32N 52°56' E 004°19'  

Dump ship's entire track history